createdAt,value
2024-05-09T00:00:18.211Z,53.39
2024-05-09T00:01:13.067Z,53.19
2024-05-09T00:02:12.142Z,53.19
2024-05-09T00:03:12.517Z,52.87
2024-05-09T00:04:12.070Z,52.89
2024-05-09T00:05:12.128Z,53.30
2024-05-09T00:06:12.046Z,53.52
2024-05-09T00:07:11.984Z,53.69
2024-05-09T00:08:12.580Z,53.59
2024-05-09T00:09:11.955Z,54.02
2024-05-09T00:10:22.056Z,54.10
2024-05-09T00:11:13.005Z,53.99
2024-05-09T00:12:11.976Z,53.79
2024-05-09T00:13:11.932Z,54.72
2024-05-09T00:14:11.956Z,54.94
2024-05-09T00:15:11.886Z,54.92
2024-05-09T00:16:11.881Z,54.62
2024-05-09T00:17:12.024Z,54.52
2024-05-09T00:18:12.057Z,55.47
2024-05-09T00:19:11.903Z,55.57
2024-05-09T00:20:17.894Z,55.57
2024-05-09T00:21:12.908Z,56.30
2024-05-09T00:22:11.812Z,56.07
2024-05-09T00:23:13.003Z,55.80
2024-05-09T00:24:11.772Z,56.63
2024-05-09T00:25:11.774Z,56.63
2024-05-09T00:26:11.836Z,56.63
2024-05-09T00:27:13.331Z,56.83
2024-05-09T00:28:11.776Z,57.28
2024-05-09T00:29:11.809Z,58.39
2024-05-09T00:30:17.771Z,58.49
2024-05-09T00:31:12.697Z,58.09
2024-05-09T00:32:11.754Z,57.86
2024-05-09T00:33:12.059Z,58.29
2024-05-09T00:34:11.672Z,58.18
2024-05-09T00:35:11.700Z,58.18
2024-05-09T00:36:11.670Z,58.18
2024-05-09T00:37:11.659Z,58.29
2024-05-09T00:38:11.661Z,57.98
2024-05-09T00:39:11.605Z,57.66
2024-05-09T00:40:18.345Z,57.53
2024-05-09T00:41:13.119Z,57.13
2024-05-09T00:42:11.536Z,56.63
2024-05-09T00:43:12.500Z,56.73
2024-05-09T00:44:11.576Z,56.76
2024-05-09T00:45:11.487Z,56.63
2024-05-09T00:46:11.489Z,56.20
2024-05-09T00:47:11.725Z,55.70
2024-05-09T00:48:13.928Z,55.80
2024-05-09T00:49:11.565Z,56.02
2024-05-09T00:50:16.017Z,55.47
2024-05-09T00:51:12.550Z,54.64
2024-05-09T00:52:11.421Z,54.14
2024-05-09T00:53:11.869Z,54.87
2024-05-09T00:54:11.362Z,55.20
2024-05-09T00:55:11.406Z,56.45
2024-05-09T00:56:11.373Z,56.65
2024-05-09T00:57:11.374Z,56.38
2024-05-09T00:58:11.342Z,57.98
2024-05-09T00:59:11.431Z,56.45
2024-05-09T01:00:22.399Z,55.93
2024-05-09T01:01:12.277Z,56.02
2024-05-09T01:02:11.324Z,56.56
2024-05-09T01:03:13.372Z,56.13
2024-05-09T01:04:11.629Z,55.82
2024-05-09T01:05:11.373Z,55.80
2024-05-09T01:06:11.203Z,54.94
2024-05-09T01:07:11.183Z,54.77
2024-05-09T01:08:11.513Z,54.77
2024-05-09T01:09:11.155Z,54.74
2024-05-09T01:10:17.058Z,54.02
2024-05-09T01:11:12.320Z,53.82
2024-05-09T01:12:11.551Z,54.12
2024-05-09T01:13:11.200Z,53.74
2024-05-09T01:14:11.222Z,53.97
2024-05-09T01:15:11.098Z,54.27
2024-05-09T01:16:11.195Z,55.55
2024-05-09T01:17:11.205Z,57.11
2024-05-09T01:18:12.417Z,57.61
2024-05-09T01:19:11.367Z,56.85
2024-05-09T01:20:19.620Z,56.45
2024-05-09T01:21:12.119Z,56.15
2024-05-09T01:22:10.992Z,56.15
2024-05-09T01:23:11.742Z,55.43
2024-05-09T01:24:10.975Z,55.32
2024-05-09T01:25:10.955Z,55.78
2024-05-09T01:26:10.970Z,57.26
2024-05-09T01:27:10.956Z,59.23
2024-05-09T01:28:10.923Z,60.16
2024-05-09T01:29:10.927Z,59.63
2024-05-09T01:30:17.182Z,59.50
2024-05-09T01:31:11.879Z,59.00
2024-05-09T01:32:11.060Z,59.83
2024-05-09T01:33:12.315Z,59.00
2024-05-09T01:34:10.866Z,58.67
2024-05-09T01:35:10.843Z,58.24
2024-05-09T01:36:10.839Z,57.71
2024-05-09T01:37:10.787Z,56.65
2024-05-09T01:38:10.801Z,55.65
2024-05-09T01:39:10.794Z,55.65
2024-05-09T01:40:15.035Z,55.95
2024-05-09T01:41:11.811Z,55.52
2024-05-09T01:42:10.728Z,55.13
2024-05-09T01:43:11.828Z,54.82
2024-05-09T01:44:10.763Z,54.90
2024-05-09T01:45:10.685Z,54.80
2024-05-09T01:46:10.678Z,54.70
2024-05-09T01:47:10.840Z,54.93
2024-05-09T01:48:11.542Z,55.22
2024-05-09T01:49:10.697Z,55.58
2024-05-09T01:50:11.102Z,56.84
2024-05-09T01:51:10.823Z,57.24
2024-05-09T01:52:10.618Z,57.26
2024-05-09T01:53:10.805Z,58.29
2024-05-09T01:54:10.565Z,58.93
2024-05-09T01:55:10.580Z,58.42
2024-05-09T01:56:10.571Z,59.26
2024-05-09T01:57:10.544Z,59.76
2024-05-09T01:58:10.537Z,59.79
2024-05-09T01:59:10.628Z,60.19
2024-05-09T02:00:10.621Z,60.09
2024-05-09T02:01:10.515Z,59.99
2024-05-09T02:02:10.759Z,60.69
2024-05-09T02:03:12.452Z,59.86
2024-05-09T02:04:10.616Z,59.26
2024-05-09T02:05:10.682Z,59.13
2024-05-09T02:06:10.548Z,58.95
2024-05-09T02:07:10.414Z,59.06
2024-05-09T02:08:10.389Z,59.03
2024-05-09T02:09:10.361Z,58.53
2024-05-09T02:10:16.450Z,58.98
2024-05-09T02:11:11.484Z,59.56
2024-05-09T02:12:10.531Z,59.66
2024-05-09T02:13:10.366Z,59.56
2024-05-09T02:14:10.467Z,58.86
2024-05-09T02:15:10.274Z,59.46
2024-05-09T02:16:10.267Z,59.36
2024-05-09T02:17:10.312Z,59.26
2024-05-09T02:18:11.383Z,59.23
2024-05-09T02:19:10.506Z,58.29
2024-05-09T02:20:16.109Z,58.29
2024-05-09T02:21:11.296Z,58.20
2024-05-09T02:22:10.191Z,57.77
2024-05-09T02:23:10.346Z,57.37
2024-05-09T02:24:10.178Z,56.93
2024-05-09T02:25:10.172Z,56.34
2024-05-09T02:26:10.206Z,56.51
2024-05-09T02:27:10.143Z,56.01
2024-05-09T02:28:10.110Z,55.91
2024-05-09T02:29:10.149Z,55.80
2024-05-09T02:30:18.623Z,56.01
2024-05-09T02:31:11.100Z,55.78
2024-05-09T02:32:10.166Z,55.91
2024-05-09T02:33:12.159Z,55.71
2024-05-09T02:34:10.149Z,55.91
2024-05-09T02:35:10.147Z,56.01
2024-05-09T02:36:10.018Z,55.80
2024-05-09T02:37:09.983Z,55.40
2024-05-09T02:38:10.450Z,55.78
2024-05-09T02:39:09.946Z,55.51
2024-05-09T02:40:14.588Z,55.60
2024-05-09T02:41:11.027Z,55.47
2024-05-09T02:42:09.918Z,55.40
2024-05-09T02:43:11.123Z,56.03
2024-05-09T02:44:09.930Z,56.43
2024-05-09T02:45:09.877Z,56.54
2024-05-09T02:46:09.870Z,56.01
2024-05-09T02:47:10.046Z,56.10
2024-05-09T02:48:10.064Z,55.80
2024-05-09T02:49:09.970Z,55.91
2024-05-09T02:50:13.291Z,55.38
2024-05-09T02:51:10.998Z,54.75
2024-05-09T02:52:09.808Z,54.43
2024-05-09T02:53:10.238Z,54.02
2024-05-09T02:54:09.779Z,53.92
2024-05-09T02:55:09.745Z,53.82
2024-05-09T02:56:09.819Z,53.92
2024-05-09T02:57:09.716Z,54.02
2024-05-09T02:58:10.097Z,53.50
2024-05-09T02:59:09.695Z,53.39
2024-05-09T03:00:15.244Z,53.42
2024-05-09T03:01:10.694Z,53.85
2024-05-09T03:02:09.760Z,54.47
2024-05-09T03:03:11.670Z,54.58
2024-05-09T03:04:09.727Z,54.58
2024-05-09T03:05:09.666Z,54.77
2024-05-09T03:06:09.625Z,54.58
2024-05-09T03:07:09.584Z,54.68
2024-05-09T03:08:09.824Z,54.77
2024-05-09T03:09:09.587Z,54.90
2024-05-09T03:10:14.979Z,55.10
2024-05-09T03:11:10.663Z,54.97
2024-05-09T03:12:09.604Z,54.68
2024-05-09T03:13:09.509Z,54.35
2024-05-09T03:14:09.536Z,54.05
2024-05-09T03:15:09.487Z,54.05
2024-05-09T03:16:09.468Z,54.15
2024-05-09T03:17:09.543Z,54.35
2024-05-09T03:18:09.875Z,54.35
2024-05-09T03:19:09.564Z,54.47
2024-05-09T03:20:17.401Z,54.77
2024-05-09T03:21:10.579Z,54.93
2024-05-09T03:22:09.382Z,55.83
2024-05-09T03:23:10.314Z,56.29
2024-05-09T03:24:09.396Z,56.69
2024-05-09T03:25:09.354Z,56.56
2024-05-09T03:26:09.408Z,56.36
2024-05-09T03:27:09.319Z,56.59
2024-05-09T03:28:09.358Z,56.36
2024-05-09T03:29:09.385Z,56.06
2024-05-09T03:30:10.009Z,56.16
2024-05-09T03:31:09.277Z,55.53
2024-05-09T03:32:09.308Z,55.23
2024-05-09T03:33:09.689Z,55.23
2024-05-09T03:34:09.252Z,54.80
2024-05-09T03:35:09.343Z,54.63
2024-05-09T03:36:11.182Z,55.23
2024-05-09T03:37:09.183Z,55.26
2024-05-09T03:38:09.451Z,55.55
2024-05-09T03:39:09.174Z,55.66
2024-05-09T03:40:14.449Z,55.46
2024-05-09T03:41:10.191Z,55.55
2024-05-09T03:42:09.116Z,55.55
2024-05-09T03:43:09.108Z,55.46
2024-05-09T03:44:09.143Z,55.35
2024-05-09T03:45:09.091Z,55.26
2024-05-09T03:46:09.097Z,55.26
2024-05-09T03:47:09.084Z,55.35
2024-05-09T03:48:09.322Z,55.26
2024-05-09T03:49:09.239Z,54.96
2024-05-09T03:50:15.194Z,55.05
2024-05-09T03:51:10.081Z,55.55
2024-05-09T03:52:08.988Z,55.66
2024-05-09T03:53:08.996Z,55.76
2024-05-09T03:54:08.981Z,55.66
2024-05-09T03:55:08.950Z,55.66
2024-05-09T03:56:08.991Z,55.55
2024-05-09T03:57:08.965Z,55.58
2024-05-09T03:58:08.912Z,55.99
2024-05-09T03:59:08.915Z,55.91
2024-05-09T04:00:17.749Z,56.64
2024-05-09T04:01:09.885Z,57.15
2024-05-09T04:02:09.003Z,56.95
2024-05-09T04:03:11.338Z,57.04
2024-05-09T04:04:09.084Z,57.04
2024-05-09T04:05:08.845Z,56.71
2024-05-09T04:06:08.848Z,56.62
2024-05-09T04:07:08.809Z,56.54
2024-05-09T04:08:09.015Z,57.37
2024-05-09T04:09:08.784Z,57.48
2024-05-09T04:10:13.873Z,57.20
2024-05-09T04:11:09.896Z,57.98
2024-05-09T04:12:08.825Z,57.88
2024-05-09T04:13:08.709Z,57.35
2024-05-09T04:14:08.770Z,56.82
2024-05-09T04:15:12.143Z,56.82
2024-05-09T04:16:08.733Z,56.64
2024-05-09T04:17:08.696Z,57.17
2024-05-09T04:18:08.811Z,57.15
2024-05-09T04:19:08.702Z,57.24
2024-05-09T04:20:12.394Z,57.35
2024-05-09T04:21:09.800Z,57.02
2024-05-09T04:22:08.599Z,56.71
2024-05-09T04:23:09.432Z,56.41
2024-05-09T04:24:08.571Z,56.21
2024-05-09T04:25:08.548Z,55.99
2024-05-09T04:26:08.560Z,55.99
2024-05-09T04:27:08.554Z,55.86
2024-05-09T04:28:08.508Z,55.63
2024-05-09T04:29:08.548Z,55.23
2024-05-09T04:30:15.288Z,55.60
2024-05-09T04:31:09.494Z,55.47
2024-05-09T04:32:08.656Z,54.93
2024-05-09T04:33:10.880Z,53.97
2024-05-09T04:34:08.596Z,53.34
2024-05-09T04:35:08.475Z,51.79
2024-05-09T04:36:08.410Z,51.75
2024-05-09T04:37:08.390Z,50.42
2024-05-09T04:38:08.424Z,48.90
2024-05-09T04:39:08.371Z,48.05
2024-05-09T04:40:14.067Z,47.63
2024-05-09T04:41:09.370Z,47.74
2024-05-09T04:42:08.310Z,45.52
2024-05-09T04:43:08.301Z,46.31
2024-05-09T04:44:08.336Z,45.60
2024-05-09T04:45:08.320Z,45.72
2024-05-09T04:46:08.280Z,45.94
2024-05-09T04:47:08.335Z,45.94
2024-05-09T04:48:08.595Z,46.01
2024-05-09T04:49:08.385Z,45.10
2024-05-09T04:50:11.571Z,44.96
2024-05-09T04:51:09.264Z,43.94
2024-05-09T04:52:08.191Z,43.32
2024-05-09T04:53:09.904Z,42.80
2024-05-09T04:54:10.735Z,42.69
2024-05-09T04:55:08.161Z,41.75
2024-05-09T04:56:08.195Z,41.04
2024-05-09T04:57:08.162Z,41.14
2024-05-09T04:58:08.113Z,40.44
2024-05-09T04:59:08.132Z,40.64
2024-05-09T05:00:14.566Z,40.55
2024-05-09T05:01:09.088Z,39.87
2024-05-09T05:02:08.126Z,41.55
2024-05-09T05:03:09.353Z,43.35
2024-05-09T05:04:08.082Z,45.43
2024-05-09T05:05:08.134Z,47.30
2024-05-09T05:06:08.020Z,48.76
2024-05-09T05:07:07.984Z,49.16
2024-05-09T05:08:08.034Z,49.49
2024-05-09T05:09:07.969Z,49.99
2024-05-09T05:10:11.853Z,51.24
2024-05-09T05:11:09.018Z,51.42
2024-05-09T05:12:08.124Z,50.49
2024-05-09T05:13:07.911Z,50.51
2024-05-09T05:14:07.949Z,50.51
2024-05-09T05:15:07.910Z,50.49
2024-05-09T05:16:07.886Z,50.62
2024-05-09T05:17:07.951Z,51.29
2024-05-09T05:18:08.031Z,50.04
2024-05-09T05:19:11.471Z,50.20
2024-05-09T05:20:08.764Z,48.67
2024-05-09T05:21:07.859Z,48.02
2024-05-09T05:22:07.802Z,47.26
2024-05-09T05:23:07.806Z,45.50
2024-05-09T05:24:07.754Z,45.56
2024-05-09T05:25:08.398Z,45.50
2024-05-09T05:26:07.751Z,44.80
2024-05-09T05:27:07.753Z,46.20
2024-05-09T05:28:07.732Z,44.84
2024-05-09T05:29:07.798Z,42.19
2024-05-09T05:30:14.643Z,41.31
2024-05-09T05:31:08.680Z,42.37
2024-05-09T05:32:07.810Z,43.41
2024-05-09T05:33:07.788Z,44.31
2024-05-09T05:34:07.724Z,44.31
2024-05-09T05:35:07.675Z,43.80
2024-05-09T05:36:07.620Z,43.30
2024-05-09T05:37:07.642Z,44.84
2024-05-09T05:38:07.644Z,44.84
2024-05-09T05:39:07.597Z,44.72
2024-05-09T05:40:11.878Z,44.38
2024-05-09T05:41:08.664Z,42.65
2024-05-09T05:42:07.525Z,42.61
2024-05-09T05:43:07.522Z,41.60
2024-05-09T05:44:07.530Z,41.46
2024-05-09T05:45:09.657Z,40.52
2024-05-09T05:46:07.482Z,39.42
2024-05-09T05:47:07.529Z,39.22
2024-05-09T05:48:08.063Z,38.90
2024-05-09T05:49:07.490Z,38.80
2024-05-09T05:50:17.813Z,38.57
2024-05-09T05:51:08.508Z,38.29
2024-05-09T05:52:07.415Z,38.90
2024-05-09T05:53:08.416Z,38.47
2024-05-09T05:54:07.400Z,38.07
2024-05-09T05:55:07.384Z,38.07
2024-05-09T05:56:07.385Z,37.98
2024-05-09T05:57:07.406Z,38.27
2024-05-09T05:58:07.324Z,38.06
2024-05-09T05:59:07.443Z,37.74
2024-05-09T06:00:09.673Z,37.98
2024-05-09T06:01:07.356Z,38.07
2024-05-09T06:02:07.404Z,38.47
2024-05-09T06:03:07.773Z,38.65
2024-05-09T06:04:07.501Z,37.84
2024-05-09T06:05:07.336Z,37.96
2024-05-09T06:06:07.284Z,37.85
2024-05-09T06:07:07.243Z,38.06
2024-05-09T06:08:07.317Z,37.54
2024-05-09T06:09:07.227Z,37.64
2024-05-09T06:10:11.611Z,37.74
2024-05-09T06:11:08.261Z,37.74
2024-05-09T06:12:07.321Z,37.76
2024-05-09T06:13:07.193Z,37.87
2024-05-09T06:14:07.182Z,38.27
2024-05-09T06:15:07.131Z,38.47
2024-05-09T06:16:07.094Z,37.96
2024-05-09T06:17:07.159Z,38.57
2024-05-09T06:18:07.244Z,38.37
2024-05-09T06:19:07.148Z,38.68
2024-05-09T06:20:13.453Z,39.16
2024-05-09T06:21:08.182Z,38.53
2024-05-09T06:22:07.046Z,38.04
2024-05-09T06:23:07.240Z,37.72
2024-05-09T06:24:07.036Z,37.51
2024-05-09T06:25:06.991Z,37.62
2024-05-09T06:26:07.055Z,37.41
2024-05-09T06:27:07.002Z,38.04
2024-05-09T06:28:07.021Z,38.88
2024-05-09T06:29:07.036Z,39.50
2024-05-09T06:30:09.937Z,39.28
2024-05-09T06:31:07.947Z,38.88
2024-05-09T06:32:07.050Z,38.76
2024-05-09T06:33:07.317Z,38.75
2024-05-09T06:34:07.034Z,38.55
2024-05-09T06:35:06.935Z,37.92
2024-05-09T06:36:06.900Z,37.49
2024-05-09T06:37:06.948Z,37.07
2024-05-09T06:38:06.911Z,37.11
2024-05-09T06:39:06.815Z,37.09
2024-05-09T06:40:07.640Z,36.88
2024-05-09T06:41:06.899Z,36.38
2024-05-09T06:42:06.784Z,36.05
2024-05-09T06:43:06.803Z,35.02
2024-05-09T06:44:06.803Z,34.70
2024-05-09T06:45:06.756Z,35.05
2024-05-09T06:46:06.775Z,36.07
2024-05-09T06:47:06.782Z,36.15
2024-05-09T06:48:07.012Z,35.94
2024-05-09T06:49:06.789Z,36.05
2024-05-09T06:50:13.100Z,36.61
2024-05-09T06:51:07.816Z,38.92
2024-05-09T06:52:06.655Z,41.61
2024-05-09T06:53:06.853Z,43.88
2024-05-09T06:54:06.666Z,45.86
2024-05-09T06:55:06.629Z,47.50
2024-05-09T06:56:06.658Z,48.00
2024-05-09T06:57:06.652Z,48.75
2024-05-09T06:58:06.958Z,49.37
2024-05-09T06:59:06.683Z,49.25
2024-05-09T07:00:08.277Z,49.57
2024-05-09T07:01:07.581Z,49.57
2024-05-09T07:02:06.657Z,49.47
2024-05-09T07:03:06.701Z,49.55
2024-05-09T07:04:06.633Z,49.44
2024-05-09T07:05:06.664Z,49.44
2024-05-09T07:06:06.614Z,50.20
2024-05-09T07:07:06.521Z,50.17
2024-05-09T07:08:06.515Z,49.35
2024-05-09T07:09:06.496Z,48.82
2024-05-09T07:10:09.949Z,49.47
2024-05-09T07:11:07.480Z,49.97
2024-05-09T07:12:06.580Z,49.85
2024-05-09T07:13:06.379Z,49.12
2024-05-09T07:14:06.438Z,48.40
2024-05-09T07:15:06.371Z,48.48
2024-05-09T07:16:06.332Z,47.75
2024-05-09T07:17:06.612Z,47.36
2024-05-09T07:18:06.665Z,47.66
2024-05-09T07:19:06.628Z,47.75
2024-05-09T07:20:08.998Z,47.56
2024-05-09T07:21:06.336Z,48.08
2024-05-09T07:22:06.250Z,48.28
2024-05-09T07:23:06.343Z,48.63
2024-05-09T07:24:06.237Z,48.80
2024-05-09T07:25:06.211Z,48.68
2024-05-09T07:26:06.250Z,47.61
2024-05-09T07:27:06.361Z,46.37
2024-05-09T07:28:06.237Z,45.93
2024-05-09T07:29:06.207Z,45.19
2024-05-09T07:30:07.337Z,43.94
2024-05-09T07:31:06.160Z,44.80
2024-05-09T07:32:06.208Z,45.90
2024-05-09T07:33:06.405Z,44.84
2024-05-09T07:34:06.193Z,44.00
2024-05-09T07:35:06.134Z,42.99
2024-05-09T07:36:06.094Z,43.90
2024-05-09T07:37:06.099Z,43.90
2024-05-09T07:38:06.108Z,44.42
2024-05-09T07:39:06.048Z,44.02
2024-05-09T07:40:07.643Z,44.20
2024-05-09T07:41:06.188Z,43.32
2024-05-09T07:42:05.984Z,44.02
2024-05-09T07:43:05.974Z,43.70
2024-05-09T07:44:06.064Z,44.80
2024-05-09T07:45:21.579Z,45.20
2024-05-09T07:47:10.065Z,45.32
2024-05-09T07:48:14.524Z,45.30
2024-05-09T07:52:22.572Z,43.35
2024-05-09T07:53:36.360Z,46.43
2024-05-09T07:54:07.472Z,46.97
2024-05-09T07:55:05.992Z,47.67
2024-05-09T07:56:06.172Z,47.25
2024-05-09T07:57:05.963Z,46.43
2024-05-09T07:58:05.821Z,45.18
2024-05-09T07:59:05.799Z,44.45
2024-05-09T08:00:06.693Z,44.87
2024-05-09T08:01:06.940Z,45.47
2024-05-09T08:02:06.153Z,43.75
2024-05-09T08:03:05.799Z,44.57
2024-05-09T08:04:05.898Z,44.79
2024-05-09T08:05:05.924Z,44.79
2024-05-09T08:06:05.668Z,44.54
2024-05-09T08:07:05.672Z,43.19
2024-05-09T08:08:05.646Z,43.35
2024-05-09T08:09:10.809Z,43.27
2024-05-09T08:10:10.552Z,43.59
2024-05-09T08:11:05.677Z,44.21
2024-05-09T08:12:05.592Z,44.63
2024-05-09T08:13:05.699Z,44.01
2024-05-09T08:14:05.596Z,43.79
2024-05-09T08:15:05.576Z,44.01
2024-05-09T08:16:05.660Z,43.27
2024-05-09T08:17:05.578Z,43.07
2024-05-09T08:18:05.630Z,42.87
2024-05-09T08:19:05.574Z,42.99
2024-05-09T08:20:05.747Z,43.27
2024-05-09T08:21:05.508Z,42.77
2024-05-09T08:22:05.508Z,43.41
2024-05-09T08:23:05.466Z,43.51
2024-05-09T08:24:05.438Z,43.61
2024-05-09T08:25:05.513Z,43.71
2024-05-09T08:26:05.385Z,43.09
2024-05-09T08:27:05.408Z,43.41
2024-05-09T08:28:05.516Z,42.81
2024-05-09T08:29:05.372Z,42.89
2024-05-09T08:30:07.958Z,42.55
2024-05-09T08:31:07.021Z,41.24
2024-05-09T08:32:05.353Z,42.15
2024-05-09T08:33:06.469Z,42.27
2024-05-09T08:34:05.526Z,42.37
2024-05-09T08:35:05.322Z,42.37
2024-05-09T08:36:05.376Z,42.67
2024-05-09T08:37:12.990Z,42.05
2024-05-09T08:38:06.518Z,42.05
2024-05-09T08:39:05.195Z,41.33
2024-05-09T08:40:06.598Z,41.71
2024-05-09T08:41:05.177Z,41.39
2024-05-09T08:42:05.224Z,41.61
2024-05-09T08:43:05.244Z,42.03
2024-05-09T08:44:05.178Z,42.35
2024-05-09T08:45:05.132Z,42.57
2024-05-09T08:46:05.183Z,42.35
2024-05-09T08:47:05.142Z,41.66
2024-05-09T08:48:05.178Z,41.52
2024-05-09T08:49:05.391Z,40.36
2024-05-09T08:50:05.348Z,39.95
2024-05-09T08:51:05.093Z,40.54
2024-05-09T08:52:05.066Z,40.14
2024-05-09T08:53:05.129Z,42.05
2024-05-09T08:54:05.034Z,43.41
2024-05-09T08:55:05.073Z,44.53
2024-05-09T08:56:04.996Z,44.63
2024-05-09T08:57:04.994Z,44.31
2024-05-09T08:58:05.018Z,42.47
2024-05-09T08:59:04.924Z,41.91
2024-05-09T09:00:07.905Z,41.42
2024-05-09T09:01:06.039Z,41.60
2024-05-09T09:02:05.094Z,41.28
2024-05-09T09:03:04.904Z,41.99
2024-05-09T09:04:05.012Z,41.20
2024-05-09T09:05:04.985Z,40.52
2024-05-09T09:06:04.838Z,41.63
2024-05-09T09:07:04.900Z,41.63
2024-05-09T09:08:04.815Z,41.03
2024-05-09T09:09:04.811Z,41.53
2024-05-09T09:10:07.034Z,41.42
2024-05-09T09:11:04.757Z,40.78
2024-05-09T09:12:05.771Z,39.53
2024-05-09T09:13:05.424Z,39.03
2024-05-09T09:14:04.725Z,40.26
2024-05-09T09:15:04.711Z,39.35
2024-05-09T09:16:04.772Z,38.14
2024-05-09T09:17:04.703Z,38.75
2024-05-09T09:18:05.252Z,39.47
2024-05-09T09:19:04.869Z,40.42
2024-05-09T09:20:07.075Z,40.52
2024-05-09T09:21:05.657Z,40.52
2024-05-09T09:22:04.645Z,41.14
2024-05-09T09:23:04.926Z,40.82
2024-05-09T09:24:05.351Z,40.22
2024-05-09T09:25:04.872Z,40.42
2024-05-09T09:26:04.550Z,40.50
2024-05-09T09:27:04.539Z,40.32
2024-05-09T09:28:04.569Z,40.72
2024-05-09T09:29:04.508Z,39.80
2024-05-09T09:30:05.614Z,39.07
2024-05-09T09:31:05.061Z,39.07
2024-05-09T09:32:04.478Z,39.89
2024-05-09T09:33:04.714Z,39.67
2024-05-09T09:34:04.562Z,39.69
2024-05-09T09:35:04.583Z,39.90
2024-05-09T09:36:05.834Z,40.00
2024-05-09T09:37:04.514Z,40.42
2024-05-09T09:38:04.603Z,39.90
2024-05-09T09:39:04.464Z,39.27
2024-05-09T09:40:05.669Z,39.90
2024-05-09T09:41:04.751Z,39.70
2024-05-09T09:42:04.376Z,39.39
2024-05-09T09:43:04.373Z,38.85
2024-05-09T09:44:04.345Z,38.24
2024-05-09T09:45:05.700Z,38.87
2024-05-09T09:46:04.497Z,39.39
2024-05-09T09:47:04.355Z,38.89
2024-05-09T09:48:04.397Z,38.99
2024-05-09T09:49:04.349Z,39.40
2024-05-09T09:50:09.393Z,39.83
2024-05-09T09:51:05.267Z,39.61
2024-05-09T09:52:04.256Z,39.32
2024-05-09T09:53:04.192Z,39.04
2024-05-09T09:54:04.203Z,38.35
2024-05-09T09:55:04.250Z,37.81
2024-05-09T09:56:04.172Z,37.28
2024-05-09T09:57:04.181Z,36.08
2024-05-09T09:58:04.215Z,35.38
2024-05-09T09:59:04.154Z,35.95
2024-05-09T10:00:09.410Z,36.17
2024-05-09T10:01:05.225Z,35.47
2024-05-09T10:02:04.406Z,35.75
2024-05-09T10:03:04.265Z,35.36
2024-05-09T10:04:04.213Z,34.03
2024-05-09T10:05:04.214Z,33.61
2024-05-09T10:06:04.035Z,33.78
2024-05-09T10:07:04.025Z,34.10
2024-05-09T10:08:03.999Z,33.80
2024-05-09T10:09:04.010Z,34.03
2024-05-09T10:10:05.111Z,34.46
2024-05-09T10:11:04.291Z,34.56
2024-05-09T10:12:05.271Z,34.68
2024-05-09T10:13:03.998Z,35.26
2024-05-09T10:14:03.942Z,34.34
2024-05-09T10:15:03.920Z,34.76
2024-05-09T10:16:03.954Z,34.55
2024-05-09T10:17:04.202Z,33.65
2024-05-09T10:18:04.233Z,33.36
2024-05-09T10:19:04.142Z,33.44
2024-05-09T10:20:07.218Z,34.00
2024-05-09T10:21:04.853Z,35.33
2024-05-09T10:22:03.881Z,34.89
2024-05-09T10:23:03.811Z,34.15
2024-05-09T10:24:03.785Z,34.06
2024-05-09T10:25:05.051Z,34.36
2024-05-09T10:26:03.853Z,33.94
2024-05-09T10:27:03.822Z,33.73
2024-05-09T10:28:03.774Z,33.69
2024-05-09T10:29:03.760Z,34.61
2024-05-09T10:30:06.920Z,34.71
2024-05-09T10:31:04.781Z,34.89
2024-05-09T10:32:03.700Z,33.39
2024-05-09T10:33:03.746Z,33.06
2024-05-09T10:34:04.198Z,33.24
2024-05-09T10:35:03.831Z,33.30
2024-05-09T10:36:03.686Z,33.93
2024-05-09T10:37:04.940Z,33.22
2024-05-09T10:38:03.628Z,33.32
2024-05-09T10:39:03.586Z,34.53
2024-05-09T10:40:07.214Z,35.11
2024-05-09T10:41:04.563Z,34.89
2024-05-09T10:42:03.551Z,34.80
2024-05-09T10:43:06.285Z,35.80
2024-05-09T10:44:03.521Z,34.98
2024-05-09T10:45:03.514Z,34.46
2024-05-09T10:46:03.518Z,34.38
2024-05-09T10:47:03.503Z,35.82
2024-05-09T10:48:03.608Z,36.18
2024-05-09T10:49:06.291Z,36.16
2024-05-09T10:50:06.085Z,35.52
2024-05-09T10:51:05.419Z,35.13
2024-05-09T10:52:03.443Z,35.01
2024-05-09T10:53:03.419Z,35.41
2024-05-09T10:54:03.463Z,34.50
2024-05-09T10:55:05.638Z,34.52
2024-05-09T10:56:03.375Z,34.00
2024-05-09T10:57:03.385Z,32.96
2024-05-09T10:58:03.466Z,32.53
2024-05-09T10:59:03.341Z,33.04
2024-05-09T11:00:04.927Z,33.45
2024-05-09T11:01:06.608Z,34.38
2024-05-09T11:02:03.412Z,34.89
2024-05-09T11:03:03.343Z,33.97
2024-05-09T11:04:03.606Z,34.27
2024-05-09T11:05:03.387Z,34.30
2024-05-09T11:06:03.261Z,34.40
2024-05-09T11:07:05.274Z,33.88
2024-05-09T11:08:03.200Z,33.78
2024-05-09T11:09:03.215Z,33.88
2024-05-09T11:10:03.462Z,33.87
2024-05-09T11:11:03.328Z,34.66
2024-05-09T11:12:03.271Z,33.34
2024-05-09T11:13:03.225Z,33.14
2024-05-09T11:14:03.123Z,33.22
2024-05-09T11:15:03.134Z,33.33
2024-05-09T11:16:03.280Z,32.15
2024-05-09T11:17:03.158Z,32.86
2024-05-09T11:18:03.198Z,33.55
2024-05-09T11:19:03.231Z,32.96
2024-05-09T11:20:06.237Z,33.17
2024-05-09T11:21:04.060Z,34.08
2024-05-09T11:22:03.068Z,33.67
2024-05-09T11:23:03.022Z,33.85
2024-05-09T11:24:03.023Z,32.42
2024-05-09T11:25:03.216Z,32.00
2024-05-09T11:26:02.971Z,32.14
2024-05-09T11:27:03.027Z,32.35
2024-05-09T11:28:03.009Z,33.36
2024-05-09T11:29:02.959Z,33.34
2024-05-09T11:30:04.196Z,34.74
2024-05-09T11:31:02.949Z,34.78
2024-05-09T11:32:02.952Z,34.59
2024-05-09T11:33:03.019Z,34.59
2024-05-09T11:34:02.936Z,34.91
2024-05-09T11:35:02.835Z,34.98
2024-05-09T11:36:02.874Z,34.46
2024-05-09T11:37:02.868Z,33.01
2024-05-09T11:38:02.802Z,33.00
2024-05-09T11:39:02.823Z,32.70
2024-05-09T11:40:04.344Z,31.96
2024-05-09T11:41:02.759Z,30.64
2024-05-09T11:42:02.733Z,31.66
2024-05-09T11:43:02.780Z,31.76
2024-05-09T11:44:02.723Z,32.28
2024-05-09T11:45:02.745Z,32.42
2024-05-09T11:46:03.669Z,33.87
2024-05-09T11:47:02.675Z,34.05
2024-05-09T11:48:03.026Z,34.66
2024-05-09T11:49:02.894Z,34.56
2024-05-09T11:50:04.275Z,34.06
2024-05-09T11:51:02.654Z,33.87
2024-05-09T11:52:02.720Z,34.27
2024-05-09T11:53:02.672Z,34.28
2024-05-09T11:54:02.584Z,34.46
2024-05-09T11:55:02.772Z,33.57
2024-05-09T11:56:02.732Z,34.08
2024-05-09T11:57:02.589Z,34.17
2024-05-09T11:58:02.584Z,33.85
2024-05-09T11:59:02.512Z,33.95
2024-05-09T12:00:03.205Z,33.75
2024-05-09T12:01:02.885Z,33.76
2024-05-09T12:02:02.660Z,33.40
2024-05-09T12:03:02.510Z,34.50
2024-05-09T12:04:02.777Z,34.38
2024-05-09T12:05:02.542Z,34.08
2024-05-09T12:06:02.612Z,34.56
2024-05-09T12:07:02.492Z,33.14
2024-05-09T12:08:02.659Z,32.94
2024-05-09T12:09:02.414Z,33.03
2024-05-09T12:10:02.391Z,33.01
2024-05-09T12:11:02.481Z,33.24
2024-05-09T12:12:02.359Z,34.06
2024-05-09T12:13:03.732Z,33.98
2024-05-09T12:14:02.306Z,34.08
2024-05-09T12:15:02.370Z,33.87
2024-05-09T12:16:02.392Z,33.44
2024-05-09T12:17:02.307Z,33.09
2024-05-09T12:18:03.919Z,31.77
2024-05-09T12:19:02.377Z,30.36
2024-05-09T12:20:02.514Z,30.97
2024-05-09T12:21:02.249Z,31.31
2024-05-09T12:22:02.327Z,31.71
2024-05-09T12:23:02.227Z,31.39
2024-05-09T12:24:02.186Z,31.18
2024-05-09T12:25:02.276Z,31.16
2024-05-09T12:26:02.166Z,30.52
2024-05-09T12:27:02.176Z,29.92
2024-05-09T12:28:02.226Z,30.02
2024-05-09T12:29:02.115Z,30.33
2024-05-09T12:30:02.511Z,30.60
2024-05-09T12:31:02.191Z,31.62
2024-05-09T12:32:02.134Z,32.33
2024-05-09T12:33:02.128Z,32.71
2024-05-09T12:34:02.192Z,32.81
2024-05-09T12:35:02.041Z,32.70
2024-05-09T12:36:02.047Z,31.88
2024-05-09T12:37:02.043Z,31.88
2024-05-09T12:38:02.059Z,31.56
2024-05-09T12:39:02.014Z,31.99
2024-05-09T12:40:02.832Z,32.71
2024-05-09T12:41:02.128Z,33.03
2024-05-09T12:42:03.273Z,32.61
2024-05-09T12:43:01.959Z,32.07
2024-05-09T12:44:01.902Z,32.68
2024-05-09T12:45:01.953Z,32.28
2024-05-09T12:46:02.057Z,31.69
2024-05-09T12:47:01.871Z,31.79
2024-05-09T12:48:02.028Z,32.10
2024-05-09T12:49:02.124Z,32.00
2024-05-09T12:50:01.884Z,32.21
2024-05-09T12:51:01.885Z,31.23
2024-05-09T12:52:01.953Z,32.15
2024-05-09T12:53:03.048Z,32.46
2024-05-09T12:54:01.794Z,32.66
2024-05-09T12:55:01.950Z,32.45
2024-05-09T12:56:03.609Z,32.21